ADDS METAR Data INFO
IDs: Format: Raw Decoded Include TAF

Data at: 0635 UTC 15 Dec 2017

KOBE 150615Z AUTO 10003KT 10SM CLR 09/08 A3008 RMK AO2
KOBE 150555Z AUTO 15005KT 10SM SCT055 10/09 A3008 RMK AO2
KOBE 150535Z AUTO 00000KT 10SM SCT055 09/08 A3010 RMK AO2
KOBE 150515Z AUTO 00000KT 10SM CLR 10/08 A3010 RMK AO2
KOBE 150455Z AUTO 00000KT 10SM CLR 09/08 A3010 RMK AO2
KOBE 150435Z AUTO 00000KT 10SM CLR 10/09 A3011 RMK AO2
KOBE 150415Z AUTO 00000KT 10SM CLR 11/10 A3011 RMK AO2
KOBE 150355Z AUTO 00000KT 10SM CLR 11/10 A3011 RMK AO2
KOBE 150335Z AUTO 24003KT 10SM CLR 12/10 A3010 RMK AO2
KOBE 150315Z AUTO 00000KT 10SM CLR 12/10 A3010 RMK AO2
KOBE 150255Z AUTO 24005KT 10SM CLR 12/10 A3010 RMK AO2
KOBE 150235Z AUTO 19003KT 10SM CLR 13/10 A3009 RMK AO2
KOBE 150215Z AUTO 00000KT 10SM CLR 15/10 A3009 RMK AO2
KOBE 150155Z AUTO 18004KT 10SM CLR 15/10 A3008 RMK AO2
KOBE 150135Z AUTO 18003KT 10SM CLR 15/11 A3009 RMK AO2
KOBE 150110Z AUTO 18004KT 10SM CLR 16/11 A3008 RMK AO2
KOBE 150055Z AUTO 18005KT 10SM CLR 16/11 A3007 RMK AO2
KOBE 150035Z AUTO 17004KT 10SM CLR 17/12 A3007 RMK AO2
KOBE 150015Z AUTO 18004KT 10SM CLR 17/11 A3006 RMK AO2
KOBE 142355Z AUTO 16005KT 10SM CLR 17/11 A3005 RMK AO2
KOBE 142335Z AUTO 15004KT 10SM CLR 17/11 A3005 RMK AO2
KOBE 142315Z AUTO 16004KT 10SM CLR 17/10 A3004 RMK AO2
KOBE 142255Z AUTO 15005KT 10SM CLR 17/11 A3004 RMK AO2
KOBE 142235Z AUTO 16004KT 10SM CLR 17/11 A3004 RMK AO2
KOBE 142215Z AUTO 16004KT 10SM CLR 18/11 A3004 RMK AO2
KOBE 142155Z AUTO 16005KT 10SM CLR 18/11 A3003 RMK AO2
KOBE 142135Z AUTO 16007KT 10SM CLR 19/11 A3003 RMK AO2
KOBE 142115Z AUTO 15007KT 10SM CLR 20/11 A3003 RMK AO2
KOBE 142055Z AUTO 16006KT 10SM CLR 20/11 A3003 RMK AO2
KOBE 142035Z AUTO 16006KT 10SM CLR 20/11 A3003 RMK AO2
KOBE 142015Z AUTO 16005KT 10SM CLR 20/11 A3003 RMK AO2